sensor_id;sensor_type;location;lat;lon;timestamp;P1;durP1;ratioP1;P2;durP2;ratioP2
80758;SDS011;70150;45.582;10.178;2023-05-29T00:00:38;11.50;;;6.65;;
80758;SDS011;70150;45.582;10.178;2023-05-29T00:03:04;11.82;;;7.00;;
80758;SDS011;70150;45.582;10.178;2023-05-29T00:05:30;12.18;;;7.03;;
80758;SDS011;70150;45.582;10.178;2023-05-29T00:07:55;13.30;;;6.32;;
80758;SDS011;70150;45.582;10.178;2023-05-29T00:10:21;12.77;;;6.28;;
80758;SDS011;70150;45.582;10.178;2023-05-29T00:12:46;10.73;;;7.05;;
80758;SDS011;70150;45.582;10.178;2023-05-29T00:15:12;11.20;;;6.70;;
80758;SDS011;70150;45.582;10.178;2023-05-29T00:17:38;11.45;;;6.60;;
80758;SDS011;70150;45.582;10.178;2023-05-29T00:20:05;12.18;;;6.78;;
80758;SDS011;70150;45.582;10.178;2023-05-29T00:22:35;12.45;;;6.55;;
80758;SDS011;70150;45.582;10.178;2023-05-29T00:25:03;11.02;;;6.55;;
80758;SDS011;70150;45.582;10.178;2023-05-29T00:27:30;12.52;;;7.07;;
80758;SDS011;70150;45.582;10.178;2023-05-29T00:29:57;13.77;;;6.05;;
80758;SDS011;70150;45.582;10.178;2023-05-29T00:32:23;13.45;;;6.45;;
80758;SDS011;70150;45.582;10.178;2023-05-29T00:34:48;12.25;;;6.90;;
80758;SDS011;70150;45.582;10.178;2023-05-29T00:37:15;11.95;;;6.65;;
80758;SDS011;70150;45.582;10.178;2023-05-29T00:39:40;13.75;;;7.50;;
80758;SDS011;70150;45.582;10.178;2023-05-29T00:42:06;14.90;;;7.10;;
80758;SDS011;70150;45.582;10.178;2023-05-29T00:44:32;12.27;;;7.57;;
80758;SDS011;70150;45.582;10.178;2023-05-29T00:46:58;11.80;;;7.20;;
80758;SDS011;70150;45.582;10.178;2023-05-29T00:49:23;12.07;;;6.88;;
80758;SDS011;70150;45.582;10.178;2023-05-29T00:51:50;13.70;;;7.13;;
80758;SDS011;70150;45.582;10.178;2023-05-29T00:54:20;12.55;;;6.55;;
80758;SDS011;70150;45.582;10.178;2023-05-29T00:56:49;13.68;;;7.82;;
80758;SDS011;70150;45.582;10.178;2023-05-29T00:59:15;12.50;;;6.97;;
80758;SDS011;70150;45.582;10.178;2023-05-29T01:01:43;11.63;;;6.78;;
80758;SDS011;70150;45.582;10.178;2023-05-29T01:04:09;12.20;;;7.20;;
80758;SDS011;70150;45.582;10.178;2023-05-29T01:06:37;9.57;;;6.55;;
80758;SDS011;70150;45.582;10.178;2023-05-29T01:09:04;12.73;;;6.70;;
80758;SDS011;70150;45.582;10.178;2023-05-29T01:14:00;12.48;;;6.43;;
80758;SDS011;70150;45.582;10.178;2023-05-29T01:16:35;9.15;;;5.65;;
80758;SDS011;70150;45.582;10.178;2023-05-29T01:19:16;12.80;;;6.55;;
80758;SDS011;70150;45.582;10.178;2023-05-29T01:26:54;11.55;;;6.53;;
80758;SDS011;70150;45.582;10.178;2023-05-29T01:31:53;10.30;;;6.50;;
80758;SDS011;70150;45.582;10.178;2023-05-29T01:34:19;11.63;;;6.88;;
80758;SDS011;70150;45.582;10.178;2023-05-29T01:36:45;10.88;;;6.13;;
80758;SDS011;70150;45.582;10.178;2023-05-29T01:39:12;10.32;;;6.28;;
80758;SDS011;70150;45.582;10.178;2023-05-29T01:41:38;15.02;;;6.72;;
80758;SDS011;70150;45.582;10.178;2023-05-29T01:44:07;10.57;;;6.40;;
80758;SDS011;70150;45.582;10.178;2023-05-29T01:46:34;10.35;;;6.35;;
80758;SDS011;70150;45.582;10.178;2023-05-29T01:49:02;10.70;;;6.60;;
80758;SDS011;70150;45.582;10.178;2023-05-29T01:51:28;10.18;;;6.47;;
80758;SDS011;70150;45.582;10.178;2023-05-29T01:53:53;10.65;;;6.85;;
80758;SDS011;70150;45.582;10.178;2023-05-29T01:56:19;11.15;;;6.20;;
80758;SDS011;70150;45.582;10.178;2023-05-29T01:58:45;11.52;;;6.68;;
80758;SDS011;70150;45.582;10.178;2023-05-29T02:01:11;12.63;;;7.07;;
80758;SDS011;70150;45.582;10.178;2023-05-29T02:03:37;10.85;;;6.68;;
80758;SDS011;70150;45.582;10.178;2023-05-29T02:06:02;10.85;;;6.65;;
80758;SDS011;70150;45.582;10.178;2023-05-29T02:08:28;10.25;;;6.75;;
80758;SDS011;70150;45.582;10.178;2023-05-29T02:10:53;11.70;;;6.57;;
80758;SDS011;70150;45.582;10.178;2023-05-29T02:13:19;11.23;;;6.88;;
80758;SDS011;70150;45.582;10.178;2023-05-29T02:15:47;11.88;;;6.60;;
80758;SDS011;70150;45.582;10.178;2023-05-29T02:18:14;10.30;;;6.30;;
80758;SDS011;70150;45.582;10.178;2023-05-29T02:20:42;12.18;;;6.75;;
80758;SDS011;70150;45.582;10.178;2023-05-29T02:23:08;14.57;;;7.20;;
80758;SDS011;70150;45.582;10.178;2023-05-29T02:25:37;10.77;;;6.65;;
80758;SDS011;70150;45.582;10.178;2023-05-29T02:28:03;13.82;;;7.47;;
80758;SDS011;70150;45.582;10.178;2023-05-29T02:30:29;10.95;;;6.90;;
80758;SDS011;70150;45.582;10.178;2023-05-29T02:32:55;15.85;;;6.60;;
80758;SDS011;70150;45.582;10.178;2023-05-29T02:35:21;9.70;;;6.20;;
80758;SDS011;70150;45.582;10.178;2023-05-29T02:37:48;12.30;;;6.80;;
80758;SDS011;70150;45.582;10.178;2023-05-29T02:40:14;13.15;;;6.90;;
80758;SDS011;70150;45.582;10.178;2023-05-29T02:42:40;12.20;;;6.78;;
80758;SDS011;70150;45.582;10.178;2023-05-29T02:45:05;10.38;;;6.28;;
80758;SDS011;70150;45.582;10.178;2023-05-29T02:47:31;12.30;;;6.75;;
80758;SDS011;70150;45.582;10.178;2023-05-29T02:49:57;10.20;;;6.63;;
80758;SDS011;70150;45.582;10.178;2023-05-29T02:52:22;12.25;;;6.95;;
80758;SDS011;70150;45.582;10.178;2023-05-29T02:54:48;12.57;;;7.15;;
80758;SDS011;70150;45.582;10.178;2023-05-29T02:57:14;12.07;;;6.78;;
80758;SDS011;70150;45.582;10.178;2023-05-29T02:59:40;11.93;;;6.72;;
80758;SDS011;70150;45.582;10.178;2023-05-29T03:02:06;12.95;;;6.93;;
80758;SDS011;70150;45.582;10.178;2023-05-29T03:04:31;12.50;;;6.90;;
80758;SDS011;70150;45.582;10.178;2023-05-29T03:06:57;12.13;;;7.03;;
80758;SDS011;70150;45.582;10.178;2023-05-29T03:09:23;14.10;;;6.88;;
80758;SDS011;70150;45.582;10.178;2023-05-29T03:11:48;10.10;;;6.70;;
80758;SDS011;70150;45.582;10.178;2023-05-29T03:14:15;13.70;;;7.25;;
80758;SDS011;70150;45.582;10.178;2023-05-29T03:16:41;11.73;;;6.70;;
80758;SDS011;70150;45.582;10.178;2023-05-29T03:19:07;11.73;;;6.47;;
80758;SDS011;70150;45.582;10.178;2023-05-29T03:21:33;11.35;;;6.35;;
80758;SDS011;70150;45.582;10.178;2023-05-29T03:23:59;10.23;;;6.03;;
80758;SDS011;70150;45.582;10.178;2023-05-29T03:26:25;13.85;;;7.05;;
80758;SDS011;70150;45.582;10.178;2023-05-29T03:28:51;11.63;;;6.70;;
80758;SDS011;70150;45.582;10.178;2023-05-29T03:31:17;10.55;;;6.57;;
80758;SDS011;70150;45.582;10.178;2023-05-29T03:33:42;12.65;;;6.82;;
80758;SDS011;70150;45.582;10.178;2023-05-29T03:36:08;11.38;;;6.65;;
80758;SDS011;70150;45.582;10.178;2023-05-29T03:38:34;12.07;;;6.70;;
80758;SDS011;70150;45.582;10.178;2023-05-29T03:40:59;9.45;;;6.47;;
80758;SDS011;70150;45.582;10.178;2023-05-29T03:43:25;10.43;;;6.38;;
80758;SDS011;70150;45.582;10.178;2023-05-29T03:45:51;13.32;;;6.85;;
80758;SDS011;70150;45.582;10.178;2023-05-29T03:48:16;10.85;;;6.80;;
80758;SDS011;70150;45.582;10.178;2023-05-29T03:50:42;12.27;;;7.00;;
80758;SDS011;70150;45.582;10.178;2023-05-29T03:53:08;9.68;;;6.35;;
80758;SDS011;70150;45.582;10.178;2023-05-29T03:55:33;13.73;;;7.05;;
80758;SDS011;70150;45.582;10.178;2023-05-29T03:57:59;12.07;;;6.85;;
80758;SDS011;70150;45.582;10.178;2023-05-29T04:00:25;13.27;;;6.50;;
80758;SDS011;70150;45.582;10.178;2023-05-29T04:02:54;12.38;;;6.25;;
80758;SDS011;70150;45.582;10.178;2023-05-29T04:05:20;12.88;;;6.35;;
80758;SDS011;70150;45.582;10.178;2023-05-29T04:07:48;13.23;;;6.60;;
80758;SDS011;70150;45.582;10.178;2023-05-29T04:10:14;10.85;;;6.88;;
80758;SDS011;70150;45.582;10.178;2023-05-29T04:12:40;11.15;;;6.28;;
80758;SDS011;70150;45.582;10.178;2023-05-29T04:15:06;11.45;;;5.85;;
80758;SDS011;70150;45.582;10.178;2023-05-29T04:17:32;11.27;;;6.28;;
80758;SDS011;70150;45.582;10.178;2023-05-29T04:19:58;11.18;;;6.13;;
80758;SDS011;70150;45.582;10.178;2023-05-29T04:22:24;12.10;;;6.15;;
80758;SDS011;70150;45.582;10.178;2023-05-29T04:24:50;10.30;;;6.40;;
80758;SDS011;70150;45.582;10.178;2023-05-29T04:27:15;11.15;;;6.25;;
80758;SDS011;70150;45.582;10.178;2023-05-29T04:29:41;11.25;;;6.72;;
80758;SDS011;70150;45.582;10.178;2023-05-29T04:32:08;11.52;;;6.47;;
80758;SDS011;70150;45.582;10.178;2023-05-29T04:34:36;10.00;;;6.25;;
80758;SDS011;70150;45.582;10.178;2023-05-29T04:37:04;11.25;;;6.70;;
80758;SDS011;70150;45.582;10.178;2023-05-29T04:39:30;11.05;;;6.95;;
80758;SDS011;70150;45.582;10.178;2023-05-29T04:41:56;10.85;;;6.00;;
80758;SDS011;70150;45.582;10.178;2023-05-29T04:44:24;11.00;;;6.50;;
80758;SDS011;70150;45.582;10.178;2023-05-29T04:46:51;10.75;;;6.18;;
80758;SDS011;70150;45.582;10.178;2023-05-29T04:49:17;11.52;;;6.38;;
80758;SDS011;70150;45.582;10.178;2023-05-29T04:51:46;11.73;;;6.80;;
80758;SDS011;70150;45.582;10.178;2023-05-29T04:54:12;9.35;;;5.55;;
80758;SDS011;70150;45.582;10.178;2023-05-29T04:56:37;10.25;;;5.97;;
80758;SDS011;70150;45.582;10.178;2023-05-29T04:59:05;13.70;;;6.25;;
80758;SDS011;70150;45.582;10.178;2023-05-29T05:01:31;10.88;;;6.32;;
80758;SDS011;70150;45.582;10.178;2023-05-29T05:03:58;11.13;;;6.35;;
80758;SDS011;70150;45.582;10.178;2023-05-29T05:06:25;12.40;;;6.70;;
80758;SDS011;70150;45.582;10.178;2023-05-29T05:08:50;13.70;;;6.50;;
80758;SDS011;70150;45.582;10.178;2023-05-29T05:11:17;13.95;;;6.53;;
80758;SDS011;70150;45.582;10.178;2023-05-29T05:13:43;12.20;;;6.35;;
80758;SDS011;70150;45.582;10.178;2023-05-29T05:16:09;10.85;;;6.00;;
80758;SDS011;70150;45.582;10.178;2023-05-29T05:18:35;12.10;;;5.78;;
80758;SDS011;70150;45.582;10.178;2023-05-29T05:21:01;10.70;;;5.93;;
80758;SDS011;70150;45.582;10.178;2023-05-29T05:23:28;8.13;;;5.60;;
80758;SDS011;70150;45.582;10.178;2023-05-29T05:25:54;10.27;;;5.50;;
80758;SDS011;70150;45.582;10.178;2023-05-29T05:28:20;11.52;;;5.70;;
80758;SDS011;70150;45.582;10.178;2023-05-29T05:30:46;10.50;;;5.90;;
80758;SDS011;70150;45.582;10.178;2023-05-29T05:33:11;10.52;;;6.18;;
80758;SDS011;70150;45.582;10.178;2023-05-29T05:35:37;10.18;;;5.65;;
80758;SDS011;70150;45.582;10.178;2023-05-29T05:38:03;10.57;;;5.38;;
80758;SDS011;70150;45.582;10.178;2023-05-29T05:40:29;15.30;;;6.28;;
80758;SDS011;70150;45.582;10.178;2023-05-29T05:42:57;10.20;;;5.70;;
80758;SDS011;70150;45.582;10.178;2023-05-29T05:45:22;8.60;;;5.65;;
80758;SDS011;70150;45.582;10.178;2023-05-29T05:47:48;10.73;;;5.82;;
80758;SDS011;70150;45.582;10.178;2023-05-29T05:50:14;9.80;;;6.05;;
80758;SDS011;70150;45.582;10.178;2023-05-29T05:52:40;12.15;;;5.95;;
80758;SDS011;70150;45.582;10.178;2023-05-29T05:55:05;9.00;;;5.82;;
80758;SDS011;70150;45.582;10.178;2023-05-29T06:02:24;10.43;;;5.95;;
80758;SDS011;70150;45.582;10.178;2023-05-29T06:04:49;12.57;;;6.10;;
80758;SDS011;70150;45.582;10.178;2023-05-29T06:07:15;11.02;;;5.78;;
80758;SDS011;70150;45.582;10.178;2023-05-29T06:09:40;12.02;;;5.38;;
80758;SDS011;70150;45.582;10.178;2023-05-29T06:12:07;14.70;;;6.40;;
80758;SDS011;70150;45.582;10.178;2023-05-29T06:14:33;10.38;;;5.93;;
80758;SDS011;70150;45.582;10.178;2023-05-29T06:16:59;11.68;;;6.47;;
80758;SDS011;70150;45.582;10.178;2023-05-29T06:19:25;9.57;;;6.30;;
80758;SDS011;70150;45.582;10.178;2023-05-29T06:21:51;9.80;;;5.65;;
80758;SDS011;70150;45.582;10.178;2023-05-29T06:24:16;12.13;;;6.35;;
80758;SDS011;70150;45.582;10.178;2023-05-29T06:26:42;10.60;;;6.43;;
80758;SDS011;70150;45.582;10.178;2023-05-29T06:29:07;14.23;;;6.15;;
80758;SDS011;70150;45.582;10.178;2023-05-29T06:31:33;11.48;;;6.28;;
80758;SDS011;70150;45.582;10.178;2023-05-29T06:33:59;11.23;;;6.80;;
80758;SDS011;70150;45.582;10.178;2023-05-29T06:36:24;14.65;;;7.75;;
80758;SDS011;70150;45.582;10.178;2023-05-29T06:38:50;21.30;;;7.78;;
80758;SDS011;70150;45.582;10.178;2023-05-29T06:41:18;14.70;;;8.05;;
80758;SDS011;70150;45.582;10.178;2023-05-29T06:43:44;12.73;;;8.05;;
80758;SDS011;70150;45.582;10.178;2023-05-29T06:46:10;14.02;;;7.60;;
80758;SDS011;70150;45.582;10.178;2023-05-29T06:48:36;14.32;;;7.90;;
80758;SDS011;70150;45.582;10.178;2023-05-29T06:51:02;19.30;;;9.35;;
80758;SDS011;70150;45.582;10.178;2023-05-29T06:53:31;16.48;;;9.45;;
80758;SDS011;70150;45.582;10.178;2023-05-29T06:55:56;15.77;;;9.23;;
80758;SDS011;70150;45.582;10.178;2023-05-29T06:58:22;15.27;;;7.90;;
80758;SDS011;70150;45.582;10.178;2023-05-29T07:00:47;16.08;;;7.90;;
80758;SDS011;70150;45.582;10.178;2023-05-29T07:03:13;13.18;;;7.50;;
80758;SDS011;70150;45.582;10.178;2023-05-29T07:05:39;16.95;;;8.45;;
80758;SDS011;70150;45.582;10.178;2023-05-29T07:08:04;12.80;;;7.70;;
80758;SDS011;70150;45.582;10.178;2023-05-29T07:10:30;15.15;;;7.85;;
80758;SDS011;70150;45.582;10.178;2023-05-29T07:12:55;16.00;;;7.93;;
80758;SDS011;70150;45.582;10.178;2023-05-29T07:15:23;15.00;;;7.38;;
80758;SDS011;70150;45.582;10.178;2023-05-29T07:17:48;11.43;;;6.78;;
80758;SDS011;70150;45.582;10.178;2023-05-29T07:20:14;12.18;;;6.68;;
80758;SDS011;70150;45.582;10.178;2023-05-29T07:22:40;10.80;;;6.35;;
80758;SDS011;70150;45.582;10.178;2023-05-29T07:25:08;12.57;;;7.40;;
80758;SDS011;70150;45.582;10.178;2023-05-29T07:27:34;11.68;;;7.10;;
80758;SDS011;70150;45.582;10.178;2023-05-29T07:30:00;14.15;;;7.35;;
80758;SDS011;70150;45.582;10.178;2023-05-29T07:32:26;11.20;;;6.78;;
80758;SDS011;70150;45.582;10.178;2023-05-29T07:34:51;11.68;;;6.88;;
80758;SDS011;70150;45.582;10.178;2023-05-29T07:37:17;15.88;;;8.27;;
80758;SDS011;70150;45.582;10.178;2023-05-29T07:42:09;15.05;;;7.93;;
80758;SDS011;70150;45.582;10.178;2023-05-29T07:44:35;14.88;;;7.75;;
80758;SDS011;70150;45.582;10.178;2023-05-29T07:47:00;13.52;;;7.20;;
80758;SDS011;70150;45.582;10.178;2023-05-29T07:49:26;12.75;;;7.20;;
80758;SDS011;70150;45.582;10.178;2023-05-29T07:51:52;11.55;;;6.22;;
80758;SDS011;70150;45.582;10.178;2023-05-29T07:54:18;13.13;;;6.25;;
80758;SDS011;70150;45.582;10.178;2023-05-29T07:56:45;14.40;;;6.72;;
80758;SDS011;70150;45.582;10.178;2023-05-29T07:59:11;11.23;;;6.60;;
80758;SDS011;70150;45.582;10.178;2023-05-29T08:01:37;9.63;;;5.65;;
80758;SDS011;70150;45.582;10.178;2023-05-29T08:04:04;7.88;;;5.55;;
80758;SDS011;70150;45.582;10.178;2023-05-29T08:06:30;10.07;;;5.13;;
80758;SDS011;70150;45.582;10.178;2023-05-29T08:08:57;10.57;;;5.13;;
80758;SDS011;70150;45.582;10.178;2023-05-29T08:11:23;9.32;;;5.40;;
80758;SDS011;70150;45.582;10.178;2023-05-29T08:13:48;9.90;;;5.65;;
80758;SDS011;70150;45.582;10.178;2023-05-29T08:16:14;11.68;;;5.45;;
80758;SDS011;70150;45.582;10.178;2023-05-29T08:18:41;10.25;;;5.38;;
80758;SDS011;70150;45.582;10.178;2023-05-29T08:21:07;10.25;;;5.50;;
80758;SDS011;70150;45.582;10.178;2023-05-29T08:23:34;9.77;;;5.38;;
80758;SDS011;70150;45.582;10.178;2023-05-29T08:26:00;10.60;;;5.82;;
80758;SDS011;70150;45.582;10.178;2023-05-29T08:28:27;9.93;;;5.07;;
80758;SDS011;70150;45.582;10.178;2023-05-29T08:30:53;10.90;;;5.47;;
80758;SDS011;70150;45.582;10.178;2023-05-29T08:33:19;11.35;;;6.93;;
80758;SDS011;70150;45.582;10.178;2023-05-29T08:35:44;12.10;;;6.75;;
80758;SDS011;70150;45.582;10.178;2023-05-29T08:38:10;12.80;;;6.15;;
80758;SDS011;70150;45.582;10.178;2023-05-29T08:40:36;12.02;;;6.38;;
80758;SDS011;70150;45.582;10.178;2023-05-29T08:43:06;8.02;;;5.55;;
80758;SDS011;70150;45.582;10.178;2023-05-29T08:45:38;11.70;;;5.78;;
80758;SDS011;70150;45.582;10.178;2023-05-29T08:48:10;13.88;;;6.80;;
80758;SDS011;70150;45.582;10.178;2023-05-29T08:50:39;10.43;;;6.13;;
80758;SDS011;70150;45.582;10.178;2023-05-29T08:53:12;11.07;;;5.75;;
80758;SDS011;70150;45.582;10.178;2023-05-29T08:55:40;10.05;;;6.53;;
80758;SDS011;70150;45.582;10.178;2023-05-29T08:58:06;11.30;;;6.85;;
80758;SDS011;70150;45.582;10.178;2023-05-29T09:00:33;11.07;;;7.32;;
80758;SDS011;70150;45.582;10.178;2023-05-29T09:02:59;10.68;;;6.93;;
80758;SDS011;70150;45.582;10.178;2023-05-29T09:05:24;12.07;;;6.82;;
80758;SDS011;70150;45.582;10.178;2023-05-29T09:07:52;11.38;;;7.28;;
80758;SDS011;70150;45.582;10.178;2023-05-29T09:10:18;12.45;;;6.85;;
80758;SDS011;70150;45.582;10.178;2023-05-29T09:12:47;10.85;;;6.22;;
80758;SDS011;70150;45.582;10.178;2023-05-29T09:15:17;9.98;;;6.38;;
80758;SDS011;70150;45.582;10.178;2023-05-29T09:17:49;11.27;;;5.90;;
80758;SDS011;70150;45.582;10.178;2023-05-29T09:20:16;9.07;;;6.53;;
80758;SDS011;70150;45.582;10.178;2023-05-29T09:22:46;9.80;;;6.10;;
80758;SDS011;70150;45.582;10.178;2023-05-29T09:25:22;11.25;;;6.03;;
80758;SDS011;70150;45.582;10.178;2023-05-29T09:35:20;12.13;;;7.35;;
80758;SDS011;70150;45.582;10.178;2023-05-29T09:37:46;13.68;;;7.85;;
80758;SDS011;70150;45.582;10.178;2023-05-29T09:40:12;12.10;;;6.95;;
80758;SDS011;70150;45.582;10.178;2023-05-29T09:42:37;12.40;;;7.10;;
80758;SDS011;70150;45.582;10.178;2023-05-29T09:45:03;11.05;;;6.97;;
80758;SDS011;70150;45.582;10.178;2023-05-29T09:47:32;10.30;;;6.50;;
80758;SDS011;70150;45.582;10.178;2023-05-29T09:50:00;14.32;;;7.65;;
80758;SDS011;70150;45.582;10.178;2023-05-29T09:52:26;14.13;;;6.82;;
80758;SDS011;70150;45.582;10.178;2023-05-29T09:54:55;12.93;;;7.75;;
80758;SDS011;70150;45.582;10.178;2023-05-29T09:57:21;9.90;;;6.85;;
80758;SDS011;70150;45.582;10.178;2023-05-29T09:59:49;11.20;;;6.70;;
80758;SDS011;70150;45.582;10.178;2023-05-29T10:02:16;14.05;;;8.10;;
80758;SDS011;70150;45.582;10.178;2023-05-29T10:04:42;15.25;;;7.50;;
80758;SDS011;70150;45.582;10.178;2023-05-29T10:09:45;14.02;;;8.82;;
80758;SDS011;70150;45.582;10.178;2023-05-29T10:12:17;13.68;;;8.70;;
80758;SDS011;70150;45.582;10.178;2023-05-29T10:14:46;14.73;;;8.73;;
80758;SDS011;70150;45.582;10.178;2023-05-29T10:17:15;19.35;;;9.70;;
80758;SDS011;70150;45.582;10.178;2023-05-29T10:19:46;17.92;;;10.68;;
80758;SDS011;70150;45.582;10.178;2023-05-29T10:22:14;13.63;;;9.25;;
80758;SDS011;70150;45.582;10.178;2023-05-29T10:24:45;20.25;;;9.90;;
80758;SDS011;70150;45.582;10.178;2023-05-29T10:27:13;14.70;;;9.27;;
80758;SDS011;70150;45.582;10.178;2023-05-29T10:34:50;18.27;;;9.82;;
80758;SDS011;70150;45.582;10.178;2023-05-29T10:39:51;18.42;;;10.90;;
80758;SDS011;70150;45.582;10.178;2023-05-29T10:44:48;15.82;;;10.18;;
80758;SDS011;70150;45.582;10.178;2023-05-29T10:47:17;17.42;;;11.38;;
80758;SDS011;70150;45.582;10.178;2023-05-29T10:49:49;16.95;;;10.65;;
80758;SDS011;70150;45.582;10.178;2023-05-29T10:52:18;15.80;;;11.18;;
80758;SDS011;70150;45.582;10.178;2023-05-29T10:57:16;17.83;;;10.25;;
80758;SDS011;70150;45.582;10.178;2023-05-29T10:59:41;17.90;;;10.80;;
80758;SDS011;70150;45.582;10.178;2023-05-29T11:02:10;17.38;;;9.95;;
80758;SDS011;70150;45.582;10.178;2023-05-29T11:04:36;16.23;;;8.98;;
80758;SDS011;70150;45.582;10.178;2023-05-29T11:07:02;15.68;;;9.55;;
80758;SDS011;70150;45.582;10.178;2023-05-29T11:14:43;15.32;;;9.68;;
80758;SDS011;70150;45.582;10.178;2023-05-29T11:19:43;18.90;;;11.10;;
80758;SDS011;70150;45.582;10.178;2023-05-29T11:22:14;18.67;;;11.90;;
80758;SDS011;70150;45.582;10.178;2023-05-29T11:24:48;17.55;;;11.38;;
80758;SDS011;70150;45.582;10.178;2023-05-29T11:27:16;20.55;;;12.70;;
80758;SDS011;70150;45.582;10.178;2023-05-29T11:29:42;21.25;;;12.30;;
80758;SDS011;70150;45.582;10.178;2023-05-29T11:32:11;19.50;;;12.55;;
80758;SDS011;70150;45.582;10.178;2023-05-29T11:34:41;22.35;;;12.60;;
80758;SDS011;70150;45.582;10.178;2023-05-29T11:37:11;17.90;;;12.25;;
80758;SDS011;70150;45.582;10.178;2023-05-29T11:39:36;20.60;;;13.63;;
80758;SDS011;70150;45.582;10.178;2023-05-29T11:42:03;20.33;;;12.07;;
80758;SDS011;70150;45.582;10.178;2023-05-29T11:44:30;17.67;;;12.45;;
80758;SDS011;70150;45.582;10.178;2023-05-29T11:49:28;20.17;;;13.20;;
80758;SDS011;70150;45.582;10.178;2023-05-29T11:52:04;19.83;;;12.15;;
80758;SDS011;70150;45.582;10.178;2023-05-29T11:54:32;21.25;;;13.48;;
80758;SDS011;70150;45.582;10.178;2023-05-29T11:56:58;19.00;;;12.07;;
80758;SDS011;70150;45.582;10.178;2023-05-29T11:59:27;19.67;;;12.52;;
80758;SDS011;70150;45.582;10.178;2023-05-29T12:01:54;16.58;;;11.10;;
80758;SDS011;70150;45.582;10.178;2023-05-29T12:04:20;16.23;;;11.38;;
80758;SDS011;70150;45.582;10.178;2023-05-29T12:06:48;19.13;;;13.35;;
80758;SDS011;70150;45.582;10.178;2023-05-29T12:11:45;19.88;;;12.98;;
80758;SDS011;70150;45.582;10.178;2023-05-29T12:14:14;22.85;;;13.05;;
80758;SDS011;70150;45.582;10.178;2023-05-29T12:16:39;22.90;;;14.13;;
80758;SDS011;70150;45.582;10.178;2023-05-29T12:19:05;18.63;;;13.20;;
80758;SDS011;70150;45.582;10.178;2023-05-29T12:21:31;21.05;;;12.95;;
80758;SDS011;70150;45.582;10.178;2023-05-29T12:23:59;17.60;;;10.43;;
80758;SDS011;70150;45.582;10.178;2023-05-29T12:26:25;21.77;;;11.82;;
80758;SDS011;70150;45.582;10.178;2023-05-29T12:28:51;21.65;;;11.77;;
80758;SDS011;70150;45.582;10.178;2023-05-29T12:33:49;19.55;;;12.32;;
80758;SDS011;70150;45.582;10.178;2023-05-29T12:36:15;16.30;;;11.18;;
80758;SDS011;70150;45.582;10.178;2023-05-29T12:43:45;16.52;;;10.68;;
80758;SDS011;70150;45.582;10.178;2023-05-29T12:46:10;17.75;;;9.35;;
80758;SDS011;70150;45.582;10.178;2023-05-29T12:48:36;19.27;;;9.80;;
80758;SDS011;70150;45.582;10.178;2023-05-29T12:51:04;17.95;;;10.63;;
80758;SDS011;70150;45.582;10.178;2023-05-29T12:53:33;17.15;;;10.77;;
80758;SDS011;70150;45.582;10.178;2023-05-29T12:55:58;17.00;;;10.30;;
80758;SDS011;70150;45.582;10.178;2023-05-29T12:58:24;19.60;;;10.50;;
80758;SDS011;70150;45.582;10.178;2023-05-29T13:00:52;16.70;;;10.63;;
80758;SDS011;70150;45.582;10.178;2023-05-29T13:03:21;19.48;;;10.77;;
80758;SDS011;70150;45.582;10.178;2023-05-29T13:05:49;16.20;;;10.10;;
80758;SDS011;70150;45.582;10.178;2023-05-29T13:08:15;17.08;;;9.80;;
80758;SDS011;70150;45.582;10.178;2023-05-29T13:10:41;14.63;;;9.10;;
80758;SDS011;70150;45.582;10.178;2023-05-29T13:13:06;15.15;;;10.38;;
80758;SDS011;70150;45.582;10.178;2023-05-29T13:15:32;14.98;;;10.45;;
80758;SDS011;70150;45.582;10.178;2023-05-29T13:17:58;18.23;;;10.65;;
80758;SDS011;70150;45.582;10.178;2023-05-29T13:20:24;19.27;;;10.32;;
80758;SDS011;70150;45.582;10.178;2023-05-29T13:22:50;15.77;;;9.90;;
80758;SDS011;70150;45.582;10.178;2023-05-29T13:25:16;18.10;;;10.63;;
80758;SDS011;70150;45.582;10.178;2023-05-29T13:27:45;19.85;;;10.32;;
80758;SDS011;70150;45.582;10.178;2023-05-29T13:30:13;18.30;;;11.18;;
80758;SDS011;70150;45.582;10.178;2023-05-29T13:32:39;15.98;;;9.35;;
80758;SDS011;70150;45.582;10.178;2023-05-29T13:35:05;15.75;;;9.45;;
80758;SDS011;70150;45.582;10.178;2023-05-29T13:37:31;17.00;;;9.88;;
80758;SDS011;70150;45.582;10.178;2023-05-29T13:39:57;17.02;;;9.07;;
80758;SDS011;70150;45.582;10.178;2023-05-29T13:42:22;14.15;;;9.18;;
80758;SDS011;70150;45.582;10.178;2023-05-29T13:44:48;13.95;;;9.18;;
80758;SDS011;70150;45.582;10.178;2023-05-29T13:47:17;17.90;;;9.27;;
80758;SDS011;70150;45.582;10.178;2023-05-29T13:49:42;16.90;;;10.32;;
80758;SDS011;70150;45.582;10.178;2023-05-29T13:52:08;14.75;;;8.73;;
80758;SDS011;70150;45.582;10.178;2023-05-29T13:54:34;13.40;;;9.25;;
80758;SDS011;70150;45.582;10.178;2023-05-29T13:57:02;14.73;;;8.85;;
80758;SDS011;70150;45.582;10.178;2023-05-29T13:59:30;15.00;;;9.48;;
80758;SDS011;70150;45.582;10.178;2023-05-29T14:01:56;15.02;;;9.02;;
80758;SDS011;70150;45.582;10.178;2023-05-29T14:04:22;13.02;;;8.82;;
80758;SDS011;70150;45.582;10.178;2023-05-29T14:06:47;13.98;;;8.32;;
80758;SDS011;70150;45.582;10.178;2023-05-29T14:09:13;12.50;;;8.30;;
80758;SDS011;70150;45.582;10.178;2023-05-29T14:11:39;13.13;;;7.97;;
80758;SDS011;70150;45.582;10.178;2023-05-29T14:14:05;14.90;;;7.90;;
80758;SDS011;70150;45.582;10.178;2023-05-29T14:16:31;14.60;;;8.23;;
80758;SDS011;70150;45.582;10.178;2023-05-29T14:21:23;12.35;;;7.90;;
80758;SDS011;70150;45.582;10.178;2023-05-29T14:23:49;13.18;;;7.35;;
80758;SDS011;70150;45.582;10.178;2023-05-29T14:26:14;12.95;;;7.55;;
80758;SDS011;70150;45.582;10.178;2023-05-29T14:28:40;12.57;;;7.10;;
80758;SDS011;70150;45.582;10.178;2023-05-29T14:31:06;16.25;;;7.57;;
80758;SDS011;70150;45.582;10.178;2023-05-29T14:33:34;16.73;;;7.60;;
80758;SDS011;70150;45.582;10.178;2023-05-29T14:36:02;12.90;;;7.10;;
80758;SDS011;70150;45.582;10.178;2023-05-29T14:38:28;13.02;;;6.72;;
80758;SDS011;70150;45.582;10.178;2023-05-29T14:40:53;13.70;;;7.80;;
80758;SDS011;70150;45.582;10.178;2023-05-29T14:43:19;10.23;;;6.97;;
80758;SDS011;70150;45.582;10.178;2023-05-29T14:45:44;12.60;;;7.03;;
80758;SDS011;70150;45.582;10.178;2023-05-29T14:48:10;12.52;;;7.43;;
80758;SDS011;70150;45.582;10.178;2023-05-29T14:50:36;14.18;;;7.47;;
80758;SDS011;70150;45.582;10.178;2023-05-29T14:53:04;14.10;;;7.47;;
80758;SDS011;70150;45.582;10.178;2023-05-29T14:55:30;11.48;;;7.10;;
80758;SDS011;70150;45.582;10.178;2023-05-29T14:58:02;12.50;;;6.93;;
80758;SDS011;70150;45.582;10.178;2023-05-29T15:00:29;10.93;;;6.55;;
80758;SDS011;70150;45.582;10.178;2023-05-29T15:02:54;10.60;;;6.72;;
80758;SDS011;70150;45.582;10.178;2023-05-29T15:05:22;12.25;;;7.00;;
80758;SDS011;70150;45.582;10.178;2023-05-29T15:07:47;13.10;;;7.18;;
80758;SDS011;70150;45.582;10.178;2023-05-29T15:10:13;11.68;;;7.28;;
80758;SDS011;70150;45.582;10.178;2023-05-29T15:12:38;13.25;;;6.65;;
80758;SDS011;70150;45.582;10.178;2023-05-29T15:15:04;10.25;;;6.38;;
80758;SDS011;70150;45.582;10.178;2023-05-29T15:17:30;11.70;;;6.45;;
80758;SDS011;70150;45.582;10.178;2023-05-29T15:19:56;11.13;;;6.38;;